Time;durP1;ratioP1;P1;durP2;ratioP2;P2;SDS_P1;SDS_P2;PMS_P1;PMS_P2;Temp;Humidity;BMP_temperature;BMP_pressure;BME280_temperature;BME280_humidity;BME280_pressure;Samples;Min_cycle;Max_cycle;Signal;HPM_P1;HPM_P2
2022/11/07 00:00:12;;;;;;;;;;;11.30;99.90;;;;;;8430265;28;19931;-72
2022/11/07 00:04:14;;;;;;;;;;;11.30;99.90;;;;;;8420086;28;19930;-72
2022/11/07 00:08:15;;;;;;;;;;;11.30;99.90;;;;;;8405375;28;20050;-72
2022/11/07 00:12:17;;;;;;;;;;;11.30;99.90;;;;;;8427143;28;19934;-72
2022/11/07 00:16:19;;;;;;;;;;;11.30;99.90;;;;;;8411316;28;19932;-72
2022/11/07 00:20:20;;;;;;;;;;;11.30;99.90;;;;;;8412896;28;20421;-72
2022/11/07 00:24:22;;;;;;;;;;;11.30;99.90;;;;;;8396729;28;19930;-72
2022/11/07 00:28:23;;;;;;;;;;;11.30;99.90;;;;;;8405936;28;19946;-72
2022/11/07 00:47:34;;;;;;;;;;;11.30;99.90;;;;;;8379958;28;20244;-72
2022/11/07 00:51:36;;;;;;;;;;;11.30;99.90;;;;;;8366369;28;19939;-72
2022/11/07 00:55:38;;;;;;;;;;;11.30;99.90;;;;;;8393141;28;19932;-72
2022/11/07 00:59:39;;;;;;;;;;;11.30;99.90;;;;;;8370341;28;19934;-71
2022/11/07 01:08:01;;;;;;;;;;;11.20;99.90;;;;;;8385535;28;20372;-72
2022/11/07 01:12:03;;;;;;;;;;;11.20;99.90;;;;;;8381385;28;20390;-72
2022/11/07 01:16:07;;;;;;;;;;;11.20;99.90;;;;;;8384461;28;19930;-73
2022/11/07 01:20:09;;;;;;;;;;;11.10;99.90;;;;;;8387660;28;20012;-72
2022/11/07 01:24:12;;;;;;;;;;;11.10;99.90;;;;;;8413918;28;19924;-72
2022/11/07 01:28:13;;;;;;;;;;;11.10;99.90;;;;;;8380711;28;20411;-72
2022/11/07 01:32:15;;;;;;;;;;;11.10;99.90;;;;;;8433700;27;19929;-72
2022/11/07 01:36:17;;;;;;;;;;;11.10;99.90;;;;;;8386318;28;19932;-72
2022/11/07 01:40:18;;;;;;;;;;;11.10;99.90;;;;;;8394534;28;19935;-72
2022/11/07 01:44:20;;;;;;;;;;;11.10;99.90;;;;;;8381902;28;19928;-72
2022/11/07 01:48:22;;;;;;;;;;;11.10;99.90;;;;;;8395983;28;20586;-72
2022/11/07 01:52:26;;;;;;;;;;;11.10;99.90;;;;;;8415729;28;19932;-72
2022/11/07 01:56:30;;;;;;;;;;;11.10;99.90;;;;;;8419436;28;20448;-72
2022/11/07 02:00:33;;;;;;;;;;;11.20;99.90;;;;;;8417490;28;20299;-72
2022/11/07 02:04:35;;;;;;;;;;;11.20;99.90;;;;;;8415796;28;20348;-72
2022/11/07 02:08:38;;;;;;;;;;;11.20;99.90;;;;;;8410705;28;20396;-72
2022/11/07 02:12:40;;;;;;;;;;;11.20;99.90;;;;;;8413186;28;19931;-72
2022/11/07 02:16:42;;;;;;;;;;;11.20;99.90;;;;;;8402546;28;20020;-72
2022/11/07 02:20:44;;;;;;;;;;;11.20;99.90;;;;;;8406713;28;19928;-72
2022/11/07 02:24:48;;;;;;;;;;;11.20;99.90;;;;;;8379790;28;20684;-73
2022/11/07 02:28:51;;;;;;;;;;;11.30;99.90;;;;;;8369171;28;20472;-73
2022/11/07 02:32:53;;;;;;;;;;;11.30;99.90;;;;;;8399067;28;19928;-72
2022/11/07 02:36:55;;;;;;;;;;;11.20;99.90;;;;;;8372916;28;19931;-72
2022/11/07 02:40:59;;;;;;;;;;;11.20;99.90;;;;;;8403400;28;19932;-73
2022/11/07 02:45:01;;;;;;;;;;;11.20;99.90;;;;;;8376921;28;19938;-72
2022/11/07 02:49:02;;;;;;;;;;;11.20;99.90;;;;;;8377851;28;19947;-72
2022/11/07 02:53:04;;;;;;;;;;;11.20;99.90;;;;;;8379154;28;19928;-72
2022/11/07 02:57:06;;;;;;;;;;;11.10;99.90;;;;;;8373403;28;19928;-72
2022/11/07 03:01:07;;;;;;;;;;;11.10;99.90;;;;;;8375527;28;19932;-72
2022/11/07 03:05:09;;;;;;;;;;;11.10;99.90;;;;;;8386681;28;20067;-72
2022/11/07 03:09:11;;;;;;;;;;;11.10;99.90;;;;;;8393468;28;19928;-73
2022/11/07 03:13:12;;;;;;;;;;;11.10;99.90;;;;;;8385871;28;19932;-73
2022/11/07 03:17:14;;;;;;;;;;;11.10;99.90;;;;;;8387821;28;19934;-72
2022/11/07 03:21:16;;;;;;;;;;;11.10;99.90;;;;;;8420575;28;20110;-72
2022/11/07 03:25:18;;;;;;;;;;;11.10;99.90;;;;;;8395883;28;20015;-72
2022/11/07 03:29:19;;;;;;;;;;;11.10;99.90;;;;;;8381689;28;19928;-72
2022/11/07 03:33:21;;;;;;;;;;;11.10;99.90;;;;;;8394440;27;19932;-72
2022/11/07 03:37:22;;;;;;;;;;;11.20;99.90;;;;;;8386377;28;19924;-72
2022/11/07 03:41:24;;;;;;;;;;;11.20;99.90;;;;;;8383714;28;19934;-72
2022/11/07 03:45:26;;;;;;;;;;;11.20;99.90;;;;;;8379256;28;19941;-72
2022/11/07 03:49:27;;;;;;;;;;;11.20;99.90;;;;;;8399948;28;20181;-72
2022/11/07 03:53:29;;;;;;;;;;;11.30;99.90;;;;;;8409152;28;20034;-72
2022/11/07 03:57:31;;;;;;;;;;;11.30;99.90;;;;;;8414006;28;20007;-72
2022/11/07 04:01:33;;;;;;;;;;;11.20;99.90;;;;;;8357811;28;20399;-72
2022/11/07 04:05:34;;;;;;;;;;;11.20;99.90;;;;;;8351698;28;20323;-72
2022/11/07 04:09:36;;;;;;;;;;;11.20;99.90;;;;;;8347315;28;19925;-72
2022/11/07 04:17:59;;;;;;;;;;;11.10;99.90;;;;;;8344680;28;20550;-72
2022/11/07 04:22:01;;;;;;;;;;;11.10;99.90;;;;;;8354943;28;19932;-72
2022/11/07 04:30:27;;;;;;;;;;;11.00;99.90;;;;;;8318716;28;20008;-72
2022/11/07 04:34:28;;;;;;;;;;;11.00;99.90;;;;;;8382070;28;19929;-72
2022/11/07 04:38:30;;;;;;;;;;;11.10;99.90;;;;;;8357813;28;20218;-72
2022/11/07 04:42:31;;;;;;;;;;;11.10;99.90;;;;;;8350511;28;20464;-72
2022/11/07 04:46:33;;;;;;;;;;;11.10;99.90;;;;;;8387098;28;19924;-72
2022/11/07 04:50:35;;;;;;;;;;;11.20;99.90;;;;;;8379537;28;20306;-72
2022/11/07 04:54:36;;;;;;;;;;;11.20;99.90;;;;;;8347933;28;19929;-72
2022/11/07 04:58:40;;;;;;;;;;;11.20;99.90;;;;;;8346263;28;21448;-73
2022/11/07 05:02:41;;;;;;;;;;;11.30;99.90;;;;;;8408943;28;19924;-73
2022/11/07 05:06:43;;;;;;;;;;;11.30;99.90;;;;;;8421307;28;19928;-73
2022/11/07 05:10:45;;;;;;;;;;;11.30;99.90;;;;;;8412061;28;20031;-72
2022/11/07 05:14:46;;;;;;;;;;;11.30;99.90;;;;;;8428728;28;19925;-72
2022/11/07 05:18:48;;;;;;;;;;;11.40;99.90;;;;;;8398491;28;20379;-72
2022/11/07 05:27:17;;;;;;;;;;;11.40;99.90;;;;;;8416489;28;19978;-72
2022/11/07 05:31:19;;;;;;;;;;;11.40;99.90;;;;;;8415206;28;19967;-72
2022/11/07 05:35:20;;;;;;;;;;;11.50;99.90;;;;;;8402149;28;20042;-72
2022/11/07 05:39:22;;;;;;;;;;;11.50;99.90;;;;;;8418591;28;19928;-73
2022/11/07 05:43:24;;;;;;;;;;;11.60;99.90;;;;;;8391437;28;19924;-72
2022/11/07 05:47:25;;;;;;;;;;;11.60;99.90;;;;;;8415416;28;20356;-72
2022/11/07 05:51:27;;;;;;;;;;;11.60;99.90;;;;;;8402440;28;19924;-72
2022/11/07 05:55:29;;;;;;;;;;;11.60;99.90;;;;;;8414986;28;19950;-72
2022/11/07 05:59:30;;;;;;;;;;;11.60;99.90;;;;;;8415150;28;20031;-73
2022/11/07 06:03:32;;;;;;;;;;;11.60;99.90;;;;;;8418859;28;19931;-72
2022/11/07 06:07:34;;;;;;;;;;;11.60;99.90;;;;;;8421086;28;19928;-72
2022/11/07 06:11:36;;;;;;;;;;;11.60;99.90;;;;;;8418230;28;19924;-72
2022/11/07 06:15:38;;;;;;;;;;;11.60;99.90;;;;;;8406980;28;20410;-72
2022/11/07 06:19:40;;;;;;;;;;;11.60;99.90;;;;;;8417480;28;19974;-72
2022/11/07 06:23:42;;;;;;;;;;;11.60;99.90;;;;;;8407663;28;19925;-72
2022/11/07 06:27:43;;;;;;;;;;;11.70;99.90;;;;;;8411968;28;19931;-72
2022/11/07 06:31:45;;;;;;;;;;;11.70;99.90;;;;;;8421190;28;19963;-72
2022/11/07 06:35:47;;;;;;;;;;;11.70;99.90;;;;;;8417961;28;19928;-72
2022/11/07 06:39:49;;;;;;;;;;;11.70;99.90;;;;;;8418781;28;20430;-72
2022/11/07 06:43:50;;;;;;;;;;;11.80;99.90;;;;;;8409005;28;19927;-72
2022/11/07 06:47:53;;;;;;;;;;;11.80;99.90;;;;;;8424363;28;19979;-72
2022/11/07 06:51:55;;;;;;;;;;;11.80;99.90;;;;;;8426065;28;19963;-72
2022/11/07 06:56:01;;;;;;;;;;;11.90;99.90;;;;;;8398852;28;20015;-72
2022/11/07 07:00:03;;;;;;;;;;;11.90;99.90;;;;;;8399951;28;20380;-72
2022/11/07 07:04:05;;;;;;;;;;;11.90;99.90;;;;;;8416704;28;20362;-72
2022/11/07 07:08:08;;;;;;;;;;;12.00;99.90;;;;;;8410978;28;19935;-72
2022/11/07 07:12:10;;;;;;;;;;;12.00;99.90;;;;;;8412922;28;19924;-72
2022/11/07 07:16:12;;;;;;;;;;;12.00;99.90;;;;;;8421403;28;19934;-72
2022/11/07 07:20:13;;;;;;;;;;;12.00;99.90;;;;;;8402406;28;19930;-72
2022/11/07 07:24:15;;;;;;;;;;;12.10;99.90;;;;;;8426282;28;19924;-72
2022/11/07 07:28:17;;;;;;;;;;;12.10;99.90;;;;;;8425026;28;19930;-72
2022/11/07 07:32:19;;;;;;;;;;;12.10;99.90;;;;;;8414715;28;19931;-72
2022/11/07 07:36:20;;;;;;;;;;;12.10;99.90;;;;;;8423093;28;20010;-72
2022/11/07 07:40:22;;;;;;;;;;;12.20;99.90;;;;;;8400043;28;19924;-72
2022/11/07 07:44:23;;;;;;;;;;;12.20;99.90;;;;;;8416822;28;19986;-72
2022/11/07 07:48:26;;;;;;;;;;;12.20;99.90;;;;;;8414963;28;19942;-72
2022/11/07 07:52:27;;;;;;;;;;;12.30;99.90;;;;;;8420949;28;19928;-72
2022/11/07 07:56:29;;;;;;;;;;;12.40;99.90;;;;;;8401467;28;20363;-72
2022/11/07 08:00:30;;;;;;;;;;;12.50;99.90;;;;;;8420229;28;19924;-72
2022/11/07 08:04:32;;;;;;;;;;;12.50;99.90;;;;;;8424609;28;19930;-72
2022/11/07 08:08:34;;;;;;;;;;;12.50;99.90;;;;;;8420941;28;20331;-72
2022/11/07 08:12:43;;;;;;;;;;;12.50;99.90;;;;;;8415667;28;20083;-72
2022/11/07 08:16:44;;;;;;;;;;;12.60;99.90;;;;;;8421330;28;21164;-72
2022/11/07 08:20:48;;;;;;;;;;;12.60;99.90;;;;;;8414666;28;19929;-72
2022/11/07 08:24:49;;;;;;;;;;;12.70;99.90;;;;;;8419398;28;20285;-72
2022/11/07 08:28:52;;;;;;;;;;;12.70;99.90;;;;;;8400071;28;19932;-72
2022/11/07 08:32:55;;;;;;;;;;;12.80;99.90;;;;;;8406953;28;20014;-72
2022/11/07 08:36:56;;;;;;;;;;;12.80;99.90;;;;;;8410378;28;19924;-72
2022/11/07 08:40:58;;;;;;;;;;;12.80;99.90;;;;;;8434314;28;19935;-72
2022/11/07 08:45:00;;;;;;;;;;;12.80;99.90;;;;;;8409146;28;19925;-72
2022/11/07 08:49:02;;;;;;;;;;;12.80;99.90;;;;;;8415967;28;20376;-72
2022/11/07 08:53:03;;;;;;;;;;;12.90;99.90;;;;;;8419678;28;20383;-72
2022/11/07 08:57:05;;;;;;;;;;;12.90;99.90;;;;;;8400584;28;19924;-72
2022/11/07 09:01:07;;;;;;;;;;;13.00;99.90;;;;;;8420107;28;19928;-72
2022/11/07 09:05:09;;;;;;;;;;;13.00;99.90;;;;;;8418909;28;19947;-72
2022/11/07 09:09:10;;;;;;;;;;;13.00;99.90;;;;;;8410859;28;20180;-72
2022/11/07 09:13:19;;;;;;;;;;;13.00;99.90;;;;;;8418976;28;19930;-72
2022/11/07 09:17:21;;;;;;;;;;;13.00;99.90;;;;;;8424712;28;19925;-72
2022/11/07 09:21:22;;;;;;;;;;;13.10;99.90;;;;;;8419090;28;19985;-72
2022/11/07 09:25:25;;;;;;;;;;;13.20;99.90;;;;;;8416852;28;19982;-72
2022/11/07 09:29:26;;;;;;;;;;;13.20;99.90;;;;;;8408713;28;20368;-72
2022/11/07 09:33:28;;;;;;;;;;;13.30;99.90;;;;;;8428781;28;20245;-72
2022/11/07 09:37:29;;;;;;;;;;;13.30;99.90;;;;;;8414072;28;20023;-72
2022/11/07 09:41:50;;;;;;;;;;;13.30;99.90;;;;;;8425358;28;19931;-72
2022/11/07 09:46:04;;;;;;;;;;;13.40;99.90;;;;;;8425894;28;19924;-73
2022/11/07 09:50:11;;;;;;;;;;;13.40;99.90;;;;;;8414487;28;20283;-72
2022/11/07 09:54:15;;;;;;;;;;;13.40;99.90;;;;;;8413807;28;20384;-72
2022/11/07 09:58:24;;;;;;;;;;;13.40;99.90;;;;;;8415580;28;19924;-72
2022/11/07 10:02:29;;;;;;;;;;;13.40;99.90;;;;;;8422822;28;19927;-72
2022/11/07 10:06:34;;;;;;;;;;;13.40;99.90;;;;;;8413528;28;20021;-72
2022/11/07 10:10:41;;;;;;;;;;;13.50;99.90;;;;;;8415558;28;20313;-72
2022/11/07 10:15:02;;;;;;;;;;;13.50;99.90;;;;;;8434073;28;19928;-72
2022/11/07 10:19:07;;;;;;;;;;;13.50;99.90;;;;;;8429668;28;19925;-72
2022/11/07 10:23:28;;;;;;;;;;;13.50;99.90;;;;;;8419986;28;19946;-72
2022/11/07 10:27:30;;;;;;;;;;;13.50;99.90;;;;;;8419285;28;19935;-72
2022/11/07 10:31:37;;;;;;;;;;;13.50;99.90;;;;;;8424642;28;19928;-72
2022/11/07 10:35:42;;;;;;;;;;;13.50;99.90;;;;;;8423346;28;20351;-72
2022/11/07 10:39:44;;;;;;;;;;;13.50;99.90;;;;;;8425589;28;19978;-72
2022/11/07 10:43:51;;;;;;;;;;;13.50;99.90;;;;;;8422929;28;19951;-72
2022/11/07 10:47:56;;;;;;;;;;;13.70;99.90;;;;;;8419175;28;19964;-72
2022/11/07 10:52:06;;;;;;;;;;;13.90;99.90;;;;;;8427267;28;19974;-72
2022/11/07 10:56:09;;;;;;;;;;;14.10;99.90;;;;;;8397330;28;19932;-72
2022/11/07 11:00:28;;;;;;;;;;;14.20;99.90;;;;;;8387368;28;20413;-72
2022/11/07 11:04:34;;;;;;;;;;;14.20;99.90;;;;;;8394410;28;19938;-72
2022/11/07 11:08:36;;;;;;;;;;;14.30;99.90;;;;;;8393770;28;20261;-72
2022/11/07 11:12:43;;;;;;;;;;;14.20;99.90;;;;;;8389410;28;19928;-72
2022/11/07 11:16:47;;;;;;;;;;;14.20;99.90;;;;;;8389810;28;19929;-72
2022/11/07 11:20:57;;;;;;;;;;;14.10;99.90;;;;;;8387406;28;19958;-72
2022/11/07 11:25:10;;;;;;;;;;;14.00;99.90;;;;;;8386377;28;20071;-72
2022/11/07 11:29:16;;;;;;;;;;;14.10;99.90;;;;;;8383257;28;20433;-72
2022/11/07 11:33:20;;;;;;;;;;;14.10;99.90;;;;;;8391998;28;19931;-72
2022/11/07 11:37:23;;;;;;;;;;;14.10;99.90;;;;;;8406440;28;19924;-72
2022/11/07 11:41:33;;;;;;;;;;;14.00;99.90;;;;;;8387943;28;20376;-72
2022/11/07 11:45:38;;;;;;;;;;;14.10;99.90;;;;;;8388259;28;19924;-72
2022/11/07 11:49:45;;;;;;;;;;;14.10;99.90;;;;;;8391020;28;19939;-72
2022/11/07 11:53:47;;;;;;;;;;;14.20;99.90;;;;;;8391413;28;19935;-72
2022/11/07 11:58:02;;;;;;;;;;;14.20;99.90;;;;;;8403764;28;20398;-72
2022/11/07 12:02:22;;;;;;;;;;;14.20;99.90;;;;;;8386511;28;20382;-72
2022/11/07 12:06:27;;;;;;;;;;;14.20;99.90;;;;;;8391371;28;19994;-72
2022/11/07 12:10:34;;;;;;;;;;;14.20;99.90;;;;;;8404909;28;19924;-72
2022/11/07 12:14:55;;;;;;;;;;;14.20;99.90;;;;;;8404658;28;21642;-73
2022/11/07 12:18:58;;;;;;;;;;;14.30;99.90;;;;;;8388254;28;19939;-72
2022/11/07 12:23:12;;;;;;;;;;;14.20;99.90;;;;;;8387733;28;19924;-72
2022/11/07 12:27:35;;;;;;;;;;;14.30;99.90;;;;;;8408176;28;19994;-73
2022/11/07 12:31:55;;;;;;;;;;;14.30;99.90;;;;;;8392611;28;19924;-73
2022/11/07 12:36:20;;;;;;;;;;;14.30;99.90;;;;;;8389683;28;19924;-73
2022/11/07 12:40:34;;;;;;;;;;;14.30;99.90;;;;;;8384853;28;19924;-72
2022/11/07 12:44:44;;;;;;;;;;;14.40;99.90;;;;;;8401086;28;19924;-73
2022/11/07 12:48:52;;;;;;;;;;;14.40;99.90;;;;;;8382254;28;19979;-72
2022/11/07 12:53:01;;;;;;;;;;;14.50;99.90;;;;;;8391565;28;19924;-72
2022/11/07 12:57:05;;;;;;;;;;;14.60;99.90;;;;;;8388057;28;19931;-72
2022/11/07 13:01:07;;;;;;;;;;;14.60;99.90;;;;;;8389803;28;19928;-72
2022/11/07 13:05:27;;;;;;;;;;;14.70;99.90;;;;;;8394697;28;19924;-72
2022/11/07 13:09:32;;;;;;;;;;;14.70;99.90;;;;;;8392435;28;19928;-72
2022/11/07 13:13:34;;;;;;;;;;;14.60;99.90;;;;;;8393245;28;19931;-72
2022/11/07 13:17:42;;;;;;;;;;;14.60;99.90;;;;;;8407985;28;19931;-72
2022/11/07 13:21:44;;;;;;;;;;;14.60;99.90;;;;;;8390346;28;19966;-72
2022/11/07 13:25:55;;;;;;;;;;;14.50;99.90;;;;;;8395488;28;19932;-72
2022/11/07 13:30:08;;;;;;;;;;;14.50;99.90;;;;;;8392712;28;20307;-73
2022/11/07 13:34:19;;;;;;;;;;;14.50;99.90;;;;;;8395202;28;19938;-72
2022/11/07 13:38:22;;;;;;;;;;;14.50;99.90;;;;;;8392359;28;20026;-73
2022/11/07 13:42:25;;;;;;;;;;;14.50;99.90;;;;;;8389461;28;20593;-72
2022/11/07 13:46:41;;;;;;;;;;;14.50;99.90;;;;;;8397905;28;19928;-72
2022/11/07 13:50:45;;;;;;;;;;;14.50;99.90;;;;;;8387930;28;19928;-73
2022/11/07 13:54:51;;;;;;;;;;;14.60;99.90;;;;;;8392286;28;19933;-72
2022/11/07 13:58:53;;;;;;;;;;;14.60;99.90;;;;;;8376443;28;19931;-72
2022/11/07 14:02:56;;;;;;;;;;;14.60;99.90;;;;;;8389998;28;20030;-73
2022/11/07 14:07:00;;;;;;;;;;;14.60;99.90;;;;;;8375726;28;19931;-72
2022/11/07 14:11:02;;;;;;;;;;;14.60;99.90;;;;;;8385027;28;20009;-72
2022/11/07 14:15:04;;;;;;;;;;;14.60;99.90;;;;;;8384889;28;20337;-73
2022/11/07 14:19:11;;;;;;;;;;;14.70;99.90;;;;;;8385706;28;19973;-72
2022/11/07 14:23:13;;;;;;;;;;;14.70;99.90;;;;;;8371585;28;19944;-72
2022/11/07 14:27:14;;;;;;;;;;;14.70;99.90;;;;;;8391918;28;19924;-73
2022/11/07 14:31:24;;;;;;;;;;;14.70;99.90;;;;;;8406172;28;19924;-72
2022/11/07 14:35:30;;;;;;;;;;;14.70;99.90;;;;;;8384590;28;19938;-72
2022/11/07 14:39:32;;;;;;;;;;;14.70;99.90;;;;;;8371769;28;19924;-73
2022/11/07 14:43:34;;;;;;;;;;;14.60;99.90;;;;;;8386366;28;19928;-72
2022/11/07 14:47:36;;;;;;;;;;;14.60;99.90;;;;;;8326034;28;19939;-73
2022/11/07 14:51:38;;;;;;;;;;;14.70;99.90;;;;;;8350457;28;19954;-73
2022/11/07 14:55:45;;;;;;;;;;;14.60;99.90;;;;;;8370518;28;20011;-72
2022/11/07 14:59:47;;;;;;;;;;;14.70;99.90;;;;;;8382571;28;19939;-72
2022/11/07 15:03:59;;;;;;;;;;;14.60;99.90;;;;;;8393908;28;20043;-73
2022/11/07 15:08:01;;;;;;;;;;;14.70;99.90;;;;;;8391781;28;20006;-73
2022/11/07 15:12:12;;;;;;;;;;;14.60;99.90;;;;;;8391443;28;19932;-73
2022/11/07 15:16:15;;;;;;;;;;;14.60;99.90;;;;;;8387169;28;19924;-72
2022/11/07 15:20:37;;;;;;;;;;;14.60;99.90;;;;;;8388366;28;19931;-73
2022/11/07 15:24:43;;;;;;;;;;;14.60;99.90;;;;;;8379028;28;20265;-80
2022/11/07 15:28:49;;;;;;;;;;;14.50;99.90;;;;;;8378412;28;19928;-78
2022/11/07 15:32:51;;;;;;;;;;;14.40;99.90;;;;;;8376601;28;20053;-78
2022/11/07 15:36:54;;;;;;;;;;;14.40;99.90;;;;;;8401464;28;19932;-79
2022/11/07 15:40:56;;;;;;;;;;;14.30;99.90;;;;;;8397107;28;19925;-79
2022/11/07 15:44:58;;;;;;;;;;;14.30;99.90;;;;;;8394975;28;20421;-78
2022/11/07 15:49:01;;;;;;;;;;;14.30;99.90;;;;;;8382120;28;19964;-80
2022/11/07 15:53:03;;;;;;;;;;;14.20;99.90;;;;;;8379659;28;19932;-80
2022/11/07 15:57:05;;;;;;;;;;;14.20;99.90;;;;;;8387539;28;19932;-79
2022/11/07 16:01:07;;;;;;;;;;;14.20;99.90;;;;;;8390627;28;20429;-79
2022/11/07 16:05:09;;;;;;;;;;;14.10;99.90;;;;;;8393022;28;20300;-79
2022/11/07 16:09:13;;;;;;;;;;;14.10;99.90;;;;;;8393495;28;20375;-79
2022/11/07 16:13:15;;;;;;;;;;;14.10;99.90;;;;;;8393423;28;19932;-79
2022/11/07 16:17:17;;;;;;;;;;;14.10;99.90;;;;;;8385177;28;20094;-79
2022/11/07 16:21:19;;;;;;;;;;;14.10;99.90;;;;;;8383930;28;19924;-78
2022/11/07 16:25:22;;;;;;;;;;;14.10;99.90;;;;;;8396134;28;19938;-78
2022/11/07 16:29:24;;;;;;;;;;;14.10;99.90;;;;;;8404318;27;20440;-78
2022/11/07 16:33:26;;;;;;;;;;;14.10;99.90;;;;;;8391215;28;20471;-79
2022/11/07 16:37:28;;;;;;;;;;;14.10;99.90;;;;;;8397330;28;20066;-78
2022/11/07 16:41:30;;;;;;;;;;;14.10;99.90;;;;;;8390405;28;19935;-77
2022/11/07 16:45:32;;;;;;;;;;;14.10;99.90;;;;;;8407795;28;20390;-79
2022/11/07 16:49:33;;;;;;;;;;;14.10;99.90;;;;;;8388500;28;20310;-78
2022/11/07 16:53:35;;;;;;;;;;;14.20;99.90;;;;;;8378851;28;19934;-79
2022/11/07 16:57:37;;;;;;;;;;;14.20;99.90;;;;;;8391125;28;19928;-78
2022/11/07 17:01:38;;;;;;;;;;;14.20;99.90;;;;;;8344067;28;19944;-78
2022/11/07 17:05:40;;;;;;;;;;;14.20;99.90;;;;;;8324541;28;19939;-79
2022/11/07 17:09:42;;;;;;;;;;;14.30;99.90;;;;;;8320591;28;20479;-78
2022/11/07 17:13:44;;;;;;;;;;;14.20;99.90;;;;;;8360465;28;19925;-78
2022/11/07 17:17:46;;;;;;;;;;;14.30;99.90;;;;;;8328538;28;19937;-78
2022/11/07 17:21:48;;;;;;;;;;;14.30;99.90;;;;;;8331830;28;19929;-79
2022/11/07 17:25:52;;;;;;;;;;;14.30;99.90;;;;;;8359865;28;20028;-78
2022/11/07 17:29:54;;;;;;;;;;;14.30;99.90;;;;;;8337274;28;19956;-79
2022/11/07 17:33:55;;;;;;;;;;;14.30;99.90;;;;;;8337288;28;19924;-79
2022/11/07 17:37:57;;;;;;;;;;;14.40;99.90;;;;;;8347064;28;19929;-79
2022/11/07 17:41:59;;;;;;;;;;;14.40;99.90;;;;;;8324571;28;19943;-79
2022/11/07 17:46:00;;;;;;;;;;;14.40;99.90;;;;;;8330161;28;19924;-78
2022/11/07 17:50:02;;;;;;;;;;;14.40;99.90;;;;;;8333838;28;19971;-78
2022/11/07 17:54:04;;;;;;;;;;;14.40;99.90;;;;;;8335588;28;19947;-78
2022/11/07 17:58:06;;;;;;;;;;;14.50;99.90;;;;;;8337432;28;20039;-79
2022/11/07 18:02:12;;;;;;;;;;;14.50;99.90;;;;;;8361876;28;19925;-78
2022/11/07 18:06:14;;;;;;;;;;;14.50;99.90;;;;;;8345826;28;20285;-78
2022/11/07 18:10:16;;;;;;;;;;;14.50;99.90;;;;;;8329486;28;20384;-78
2022/11/07 18:14:17;;;;;;;;;;;14.50;99.90;;;;;;8332965;28;19928;-79
2022/11/07 18:18:19;;;;;;;;;;;14.50;99.90;;;;;;8366191;28;19929;-78
2022/11/07 18:22:21;;;;;;;;;;;14.60;99.90;;;;;;8335041;28;20016;-79
2022/11/07 18:26:32;;;;;;;;;;;14.60;99.90;;;;;;8333058;28;20340;-78
2022/11/07 18:30:35;;;;;;;;;;;14.60;99.90;;;;;;8331227;28;20474;-79
2022/11/07 18:34:37;;;;;;;;;;;14.50;99.90;;;;;;8329570;28;19967;-78
2022/11/07 18:38:39;;;;;;;;;;;14.50;99.90;;;;;;8335146;28;19933;-79
2022/11/07 18:42:44;;;;;;;;;;;14.40;99.90;;;;;;8334126;28;19959;-78
2022/11/07 18:46:46;;;;;;;;;;;14.40;99.90;;;;;;8332198;28;19924;-79
2022/11/07 18:50:48;;;;;;;;;;;14.40;99.90;;;;;;8329145;28;20019;-79
2022/11/07 18:54:49;;;;;;;;;;;14.30;99.90;;;;;;8333278;28;20345;-78
2022/11/07 18:58:51;;;;;;;;;;;14.20;99.90;;;;;;8325894;28;19947;-78
2022/11/07 19:02:53;;;;;;;;;;;14.30;99.90;;;;;;8399096;28;19928;-78
2022/11/07 19:06:55;;;;;;;;;;;14.20;99.90;;;;;;8382290;28;19944;-79
2022/11/07 19:10:58;;;;;;;;;;;14.20;99.90;;;;;;8399675;28;19928;-79
2022/11/07 19:15:00;;;;;;;;;;;14.20;99.90;;;;;;8386891;28;19931;-78
2022/11/07 19:19:01;;;;;;;;;;;14.20;99.90;;;;;;8397267;28;20022;-78
2022/11/07 19:23:03;;;;;;;;;;;14.20;99.90;;;;;;8401270;28;19924;-78
2022/11/07 19:27:04;;;;;;;;;;;14.20;99.90;;;;;;8385545;28;19924;-78
2022/11/07 19:31:08;;;;;;;;;;;14.20;99.90;;;;;;8371455;28;19967;-79
2022/11/07 19:35:14;;;;;;;;;;;14.20;99.90;;;;;;8382166;28;19986;-78
2022/11/07 19:39:16;;;;;;;;;;;14.20;99.90;;;;;;8384147;28;20284;-79
2022/11/07 19:43:18;;;;;;;;;;;14.20;99.90;;;;;;8373214;28;19924;-78
2022/11/07 19:47:20;;;;;;;;;;;14.20;99.90;;;;;;8386031;28;19931;-79
2022/11/07 19:51:22;;;;;;;;;;;14.20;99.90;;;;;;8413430;27;19931;-78
2022/11/07 19:55:23;;;;;;;;;;;14.20;99.90;;;;;;8401828;28;19924;-78
2022/11/07 19:59:25;;;;;;;;;;;14.20;99.90;;;;;;8385450;28;19932;-79
2022/11/07 20:03:27;;;;;;;;;;;14.20;99.90;;;;;;8395092;28;19930;-79
2022/11/07 20:07:28;;;;;;;;;;;14.20;99.90;;;;;;8385209;28;19936;-79
2022/11/07 20:11:30;;;;;;;;;;;14.10;99.90;;;;;;8392270;28;19932;-78
2022/11/07 20:15:32;;;;;;;;;;;14.10;99.90;;;;;;8393710;28;19932;-78
2022/11/07 20:19:33;;;;;;;;;;;14.10;99.90;;;;;;8398649;28;20027;-79
2022/11/07 20:23:35;;;;;;;;;;;14.10;99.90;;;;;;8396237;28;19931;-79
2022/11/07 20:27:36;;;;;;;;;;;14.10;99.90;;;;;;8396458;28;19928;-78
2022/11/07 20:31:42;;;;;;;;;;;14.20;99.90;;;;;;8399227;28;20385;-79
2022/11/07 20:35:44;;;;;;;;;;;14.20;99.90;;;;;;8388509;28;20366;-78
2022/11/07 20:39:46;;;;;;;;;;;14.20;99.90;;;;;;8383728;28;19938;-78
2022/11/07 20:44:00;;;;;;;;;;;14.20;99.90;;;;;;8410454;28;19983;-78
2022/11/07 20:48:02;;;;;;;;;;;14.20;99.90;;;;;;8397706;28;19943;-79
2022/11/07 20:52:05;;;;;;;;;;;14.20;99.90;;;;;;8409978;28;19925;-78
2022/11/07 20:56:07;;;;;;;;;;;14.20;99.90;;;;;;8392875;28;19931;-79
2022/11/07 21:00:09;;;;;;;;;;;14.20;99.90;;;;;;8387280;28;20476;-79
2022/11/07 21:04:12;;;;;;;;;;;14.30;99.90;;;;;;8388382;28;19931;-78
2022/11/07 21:08:14;;;;;;;;;;;14.30;99.90;;;;;;8398653;28;19935;-78
2022/11/07 21:12:16;;;;;;;;;;;14.30;99.90;;;;;;8386088;28;20383;-79
2022/11/07 21:16:18;;;;;;;;;;;14.30;99.90;;;;;;8396974;28;19924;-79
2022/11/07 21:20:19;;;;;;;;;;;14.30;99.90;;;;;;8394914;28;19924;-78
2022/11/07 21:24:21;;;;;;;;;;;14.30;99.90;;;;;;8403683;28;19979;-79
2022/11/07 21:28:25;;;;;;;;;;;14.30;99.90;;;;;;8402265;28;19931;-78
2022/11/07 21:32:26;;;;;;;;;;;14.30;99.90;;;;;;8399425;28;19998;-79
2022/11/07 21:36:29;;;;;;;;;;;14.30;99.90;;;;;;8402088;28;20011;-78
2022/11/07 21:40:31;;;;;;;;;;;14.30;99.90;;;;;;8401295;28;19924;-79
2022/11/07 21:44:32;;;;;;;;;;;14.30;99.90;;;;;;8400089;28;20414;-78
2022/11/07 21:48:34;;;;;;;;;;;14.30;99.90;;;;;;8398271;28;21103;-79
2022/11/07 21:52:36;;;;;;;;;;;14.30;99.90;;;;;;8398021;28;19938;-78
2022/11/07 21:56:38;;;;;;;;;;;14.30;99.90;;;;;;8400206;28;19928;-78
2022/11/07 22:00:39;;;;;;;;;;;14.30;99.90;;;;;;8383401;28;20034;-79
2022/11/07 22:04:41;;;;;;;;;;;14.30;99.90;;;;;;8416241;28;19924;-79
2022/11/07 22:08:42;;;;;;;;;;;14.30;99.90;;;;;;8422440;28;19938;-78
2022/11/07 22:12:44;;;;;;;;;;;14.30;99.90;;;;;;8423015;28;19927;-79
2022/11/07 22:16:46;;;;;;;;;;;14.30;99.90;;;;;;8423857;28;19945;-79
2022/11/07 22:20:48;;;;;;;;;;;14.30;99.90;;;;;;8411972;28;19924;-79
2022/11/07 22:24:50;;;;;;;;;;;14.30;99.90;;;;;;8412661;28;20047;-78
2022/11/07 22:28:52;;;;;;;;;;;14.30;99.90;;;;;;8422472;28;19927;-79
2022/11/07 22:32:54;;;;;;;;;;;14.30;99.90;;;;;;8428066;28;19924;-78
2022/11/07 22:36:56;;;;;;;;;;;14.30;99.90;;;;;;8440693;28;20310;-79
2022/11/07 22:40:57;;;;;;;;;;;14.30;99.90;;;;;;8425291;28;19938;-79
2022/11/07 22:44:59;;;;;;;;;;;14.30;99.90;;;;;;8433238;28;19928;-78
2022/11/07 22:49:01;;;;;;;;;;;14.30;99.90;;;;;;8421892;28;19931;-79
2022/11/07 22:53:03;;;;;;;;;;;14.30;99.90;;;;;;8430447;28;19932;-78
2022/11/07 22:57:04;;;;;;;;;;;14.30;99.90;;;;;;8411775;28;20490;-78
2022/11/07 23:01:12;;;;;;;;;;;14.30;99.90;;;;;;8432144;28;20413;-78
2022/11/07 23:05:13;;;;;;;;;;;14.30;99.90;;;;;;8424016;28;19981;-79
2022/11/07 23:09:15;;;;;;;;;;;14.30;99.90;;;;;;8421347;28;19930;-79
2022/11/07 23:13:17;;;;;;;;;;;14.20;99.90;;;;;;8425735;28;19931;-79
2022/11/07 23:17:18;;;;;;;;;;;14.20;99.90;;;;;;8431873;28;19924;-79
2022/11/07 23:21:20;;;;;;;;;;;14.10;99.90;;;;;;8407844;28;19924;-79
2022/11/07 23:25:23;;;;;;;;;;;14.10;99.90;;;;;;8420102;28;19959;-78
2022/11/07 23:29:24;;;;;;;;;;;14.00;99.90;;;;;;8407725;28;20393;-78
2022/11/07 23:33:26;;;;;;;;;;;13.90;99.90;;;;;;8422515;28;19932;-79
2022/11/07 23:37:27;;;;;;;;;;;13.90;99.90;;;;;;8420383;28;19924;-77
2022/11/07 23:41:29;;;;;;;;;;;13.80;99.90;;;;;;8424931;28;20019;-78
